sensor_id;sensor_type;location;lat;lon;timestamp;P1;durP1;ratioP1;P2;durP2;ratioP2
60038;SDS011;45916;52.734;6.544;2023-06-22T00:01:01;45.58;;;40.67;;
60038;SDS011;45916;52.734;6.544;2023-06-22T00:03:27;47.92;;;42.60;;
60038;SDS011;45916;52.734;6.544;2023-06-22T00:05:52;47.95;;;42.97;;
60038;SDS011;45916;52.734;6.544;2023-06-22T00:08:18;45.05;;;40.50;;
60038;SDS011;45916;52.734;6.544;2023-06-22T00:10:45;50.50;;;45.33;;
60038;SDS011;45916;52.734;6.544;2023-06-22T00:13:12;50.55;;;45.25;;
60038;SDS011;45916;52.734;6.544;2023-06-22T00:15:39;52.90;;;47.00;;
60038;SDS011;45916;52.734;6.544;2023-06-22T00:18:06;51.97;;;46.50;;
60038;SDS011;45916;52.734;6.544;2023-06-22T00:20:32;53.45;;;47.75;;
60038;SDS011;45916;52.734;6.544;2023-06-22T00:22:58;53.50;;;47.92;;
60038;SDS011;45916;52.734;6.544;2023-06-22T00:25:25;54.03;;;48.30;;
60038;SDS011;45916;52.734;6.544;2023-06-22T00:27:51;45.28;;;40.45;;
60038;SDS011;45916;52.734;6.544;2023-06-22T00:30:17;46.92;;;42.03;;
60038;SDS011;45916;52.734;6.544;2023-06-22T00:32:44;46.28;;;41.35;;
60038;SDS011;45916;52.734;6.544;2023-06-22T00:35:11;53.10;;;47.72;;
60038;SDS011;45916;52.734;6.544;2023-06-22T00:37:38;48.40;;;43.55;;
60038;SDS011;45916;52.734;6.544;2023-06-22T00:40:07;47.33;;;42.53;;
60038;SDS011;45916;52.734;6.544;2023-06-22T00:42:36;43.65;;;38.78;;
60038;SDS011;45916;52.734;6.544;2023-06-22T00:45:02;42.47;;;37.53;;
60038;SDS011;45916;52.734;6.544;2023-06-22T00:47:29;41.80;;;37.78;;
60038;SDS011;45916;52.734;6.544;2023-06-22T00:49:55;45.53;;;40.85;;
60038;SDS011;45916;52.734;6.544;2023-06-22T00:52:21;45.85;;;41.08;;
60038;SDS011;45916;52.734;6.544;2023-06-22T00:54:52;36.40;;;32.83;;
60038;SDS011;45916;52.734;6.544;2023-06-22T00:57:18;47.92;;;42.85;;
60038;SDS011;45916;52.734;6.544;2023-06-22T00:59:45;45.85;;;41.05;;
60038;SDS011;45916;52.734;6.544;2023-06-22T01:02:12;49.70;;;44.60;;
60038;SDS011;45916;52.734;6.544;2023-06-22T01:04:39;42.17;;;37.78;;
60038;SDS011;45916;52.734;6.544;2023-06-22T01:09:35;45.40;;;40.85;;
60038;SDS011;45916;52.734;6.544;2023-06-22T01:12:18;48.30;;;43.15;;
60038;SDS011;45916;52.734;6.544;2023-06-22T01:14:47;49.10;;;43.92;;
60038;SDS011;45916;52.734;6.544;2023-06-22T01:17:33;52.15;;;45.40;;
60038;SDS011;45916;52.734;6.544;2023-06-22T01:20:00;45.92;;;41.40;;
60038;SDS011;45916;52.734;6.544;2023-06-22T01:22:30;55.38;;;49.55;;
60038;SDS011;45916;52.734;6.544;2023-06-22T01:25:11;54.25;;;48.53;;
60038;SDS011;45916;52.734;6.544;2023-06-22T01:30:17;51.47;;;45.33;;
60038;SDS011;45916;52.734;6.544;2023-06-22T01:32:44;49.28;;;43.78;;
60038;SDS011;45916;52.734;6.544;2023-06-22T01:35:11;46.80;;;41.63;;
60038;SDS011;45916;52.734;6.544;2023-06-22T01:37:38;58.50;;;51.67;;
60038;SDS011;45916;52.734;6.544;2023-06-22T01:40:07;55.75;;;49.72;;
60038;SDS011;45916;52.734;6.544;2023-06-22T01:42:35;55.88;;;49.80;;
60038;SDS011;45916;52.734;6.544;2023-06-22T01:45:02;57.57;;;50.83;;
60038;SDS011;45916;52.734;6.544;2023-06-22T01:47:28;58.35;;;52.05;;
60038;SDS011;45916;52.734;6.544;2023-06-22T01:49:54;60.00;;;52.80;;
60038;SDS011;45916;52.734;6.544;2023-06-22T01:52:20;67.75;;;59.38;;
60038;SDS011;45916;52.734;6.544;2023-06-22T01:54:46;66.53;;;57.83;;
60038;SDS011;45916;52.734;6.544;2023-06-22T01:57:13;64.35;;;54.75;;
60038;SDS011;45916;52.734;6.544;2023-06-22T01:59:43;67.55;;;59.85;;
60038;SDS011;45916;52.734;6.544;2023-06-22T02:02:19;59.92;;;52.50;;
60038;SDS011;45916;52.734;6.544;2023-06-22T02:04:54;56.15;;;50.25;;
60038;SDS011;45916;52.734;6.544;2023-06-22T02:07:37;58.20;;;51.83;;
60038;SDS011;45916;52.734;6.544;2023-06-22T02:10:07;80.22;;;65.03;;
60038;SDS011;45916;52.734;6.544;2023-06-22T02:12:37;69.93;;;61.25;;
60038;SDS011;45916;52.734;6.544;2023-06-22T02:15:04;69.05;;;61.65;;
60038;SDS011;45916;52.734;6.544;2023-06-22T02:17:31;75.53;;;65.35;;
60038;SDS011;45916;52.734;6.544;2023-06-22T02:19:58;75.07;;;64.60;;
60038;SDS011;45916;52.734;6.544;2023-06-22T02:22:24;74.55;;;63.25;;
60038;SDS011;45916;52.734;6.544;2023-06-22T02:24:49;65.85;;;58.72;;
60038;SDS011;45916;52.734;6.544;2023-06-22T02:27:15;78.72;;;68.22;;
60038;SDS011;45916;52.734;6.544;2023-06-22T02:29:41;79.80;;;69.13;;
60038;SDS011;45916;52.734;6.544;2023-06-22T02:32:07;83.78;;;70.03;;
60038;SDS011;45916;52.734;6.544;2023-06-22T02:34:32;64.78;;;57.83;;
60038;SDS011;45916;52.734;6.544;2023-06-22T02:36:59;64.72;;;57.75;;
60038;SDS011;45916;52.734;6.544;2023-06-22T02:39:26;60.92;;;54.42;;
60038;SDS011;45916;52.734;6.544;2023-06-22T02:41:52;66.72;;;58.90;;
60038;SDS011;45916;52.734;6.544;2023-06-22T02:44:19;58.20;;;51.90;;
60038;SDS011;45916;52.734;6.544;2023-06-22T02:46:45;58.47;;;52.30;;
60038;SDS011;45916;52.734;6.544;2023-06-22T02:49:11;79.55;;;60.47;;
60038;SDS011;45916;52.734;6.544;2023-06-22T02:51:42;79.80;;;65.13;;
60038;SDS011;45916;52.734;6.544;2023-06-22T02:54:11;75.88;;;65.72;;
60038;SDS011;45916;52.734;6.544;2023-06-22T02:56:36;66.82;;;59.53;;
60038;SDS011;45916;52.734;6.544;2023-06-22T02:59:02;65.57;;;58.30;;
60038;SDS011;45916;52.734;6.544;2023-06-22T03:01:29;64.50;;;57.50;;
60038;SDS011;45916;52.734;6.544;2023-06-22T03:04:03;58.33;;;52.15;;
60038;SDS011;45916;52.734;6.544;2023-06-22T03:06:29;63.65;;;56.13;;
60038;SDS011;45916;52.734;6.544;2023-06-22T03:08:58;61.45;;;54.88;;
60038;SDS011;45916;52.734;6.544;2023-06-22T03:11:25;57.70;;;49.75;;
60038;SDS011;45916;52.734;6.544;2023-06-22T03:13:51;71.25;;;60.75;;
60038;SDS011;45916;52.734;6.544;2023-06-22T03:16:18;62.25;;;54.13;;
60038;SDS011;45916;52.734;6.544;2023-06-22T03:18:44;59.97;;;52.55;;
60038;SDS011;45916;52.734;6.544;2023-06-22T03:21:10;61.63;;;54.92;;
60038;SDS011;45916;52.734;6.544;2023-06-22T03:23:36;68.45;;;60.15;;
60038;SDS011;45916;52.734;6.544;2023-06-22T03:26:02;69.28;;;58.55;;
60038;SDS011;45916;52.734;6.544;2023-06-22T03:28:29;66.72;;;57.95;;
60038;SDS011;45916;52.734;6.544;2023-06-22T03:30:57;60.78;;;53.38;;
60038;SDS011;45916;52.734;6.544;2023-06-22T03:33:23;74.03;;;63.10;;
60038;SDS011;45916;52.734;6.544;2023-06-22T03:35:49;72.25;;;63.75;;
60038;SDS011;45916;52.734;6.544;2023-06-22T03:38:16;76.38;;;64.78;;
60038;SDS011;45916;52.734;6.544;2023-06-22T03:40:42;81.55;;;70.13;;
60038;SDS011;45916;52.734;6.544;2023-06-22T03:43:07;89.40;;;72.28;;
60038;SDS011;45916;52.734;6.544;2023-06-22T03:45:33;91.03;;;72.95;;
60038;SDS011;45916;52.734;6.544;2023-06-22T03:48:00;92.07;;;74.15;;
60038;SDS011;45916;52.734;6.544;2023-06-22T03:50:26;77.78;;;66.80;;
60038;SDS011;45916;52.734;6.544;2023-06-22T03:52:52;76.28;;;65.85;;
60038;SDS011;45916;52.734;6.544;2023-06-22T03:55:19;73.18;;;64.40;;
60038;SDS011;45916;52.734;6.544;2023-06-22T03:57:45;70.32;;;62.58;;
60038;SDS011;45916;52.734;6.544;2023-06-22T04:00:11;61.65;;;54.50;;
60038;SDS011;45916;52.734;6.544;2023-06-22T04:02:37;70.00;;;60.17;;
60038;SDS011;45916;52.734;6.544;2023-06-22T04:05:03;69.80;;;59.08;;
60038;SDS011;45916;52.734;6.544;2023-06-22T04:07:29;65.32;;;57.90;;
60038;SDS011;45916;52.734;6.544;2023-06-22T04:09:55;64.13;;;55.85;;
60038;SDS011;45916;52.734;6.544;2023-06-22T04:12:20;66.22;;;59.03;;
60038;SDS011;45916;52.734;6.544;2023-06-22T04:14:46;69.97;;;61.65;;
60038;SDS011;45916;52.734;6.544;2023-06-22T04:17:12;71.63;;;63.05;;
60038;SDS011;45916;52.734;6.544;2023-06-22T04:19:39;66.88;;;59.55;;
60038;SDS011;45916;52.734;6.544;2023-06-22T04:22:05;68.53;;;58.78;;
60038;SDS011;45916;52.734;6.544;2023-06-22T04:24:32;69.65;;;58.65;;
60038;SDS011;45916;52.734;6.544;2023-06-22T04:26:58;70.88;;;61.55;;
60038;SDS011;45916;52.734;6.544;2023-06-22T04:29:29;71.70;;;63.78;;
60038;SDS011;45916;52.734;6.544;2023-06-22T04:31:55;76.35;;;63.45;;
60038;SDS011;45916;52.734;6.544;2023-06-22T04:36:51;68.22;;;60.78;;
60038;SDS011;45916;52.734;6.544;2023-06-22T04:39:17;69.00;;;61.10;;
60038;SDS011;45916;52.734;6.544;2023-06-22T04:41:44;63.78;;;56.75;;
60038;SDS011;45916;52.734;6.544;2023-06-22T04:44:13;61.38;;;54.70;;
60038;SDS011;45916;52.734;6.544;2023-06-22T04:46:48;64.57;;;56.08;;
60038;SDS011;45916;52.734;6.544;2023-06-22T04:49:19;65.00;;;57.85;;
60038;SDS011;45916;52.734;6.544;2023-06-22T04:51:45;69.70;;;58.13;;
60038;SDS011;45916;52.734;6.544;2023-06-22T04:54:11;64.63;;;56.92;;
60038;SDS011;45916;52.734;6.544;2023-06-22T04:56:37;60.72;;;54.17;;
60038;SDS011;45916;52.734;6.544;2023-06-22T04:59:05;58.67;;;52.40;;
60038;SDS011;45916;52.734;6.544;2023-06-22T05:01:32;55.10;;;49.47;;
60038;SDS011;45916;52.734;6.544;2023-06-22T05:03:57;54.10;;;48.60;;
60038;SDS011;45916;52.734;6.544;2023-06-22T05:08:54;50.30;;;45.30;;
60038;SDS011;45916;52.734;6.544;2023-06-22T05:11:24;47.33;;;42.75;;
60038;SDS011;45916;52.734;6.544;2023-06-22T05:13:50;47.20;;;42.58;;
60038;SDS011;45916;52.734;6.544;2023-06-22T05:16:17;46.10;;;41.70;;
60038;SDS011;45916;52.734;6.544;2023-06-22T05:18:49;44.20;;;39.88;;
60038;SDS011;45916;52.734;6.544;2023-06-22T05:21:21;45.03;;;40.65;;
60038;SDS011;45916;52.734;6.544;2023-06-22T05:23:48;41.65;;;37.75;;
60038;SDS011;45916;52.734;6.544;2023-06-22T05:26:14;43.03;;;39.05;;
60038;SDS011;45916;52.734;6.544;2023-06-22T05:28:40;39.33;;;35.70;;
60038;SDS011;45916;52.734;6.544;2023-06-22T05:31:05;40.75;;;36.92;;
60038;SDS011;45916;52.734;6.544;2023-06-22T05:33:31;38.50;;;34.90;;
60038;SDS011;45916;52.734;6.544;2023-06-22T05:35:57;38.97;;;35.55;;
60038;SDS011;45916;52.734;6.544;2023-06-22T05:38:22;38.35;;;34.75;;
60038;SDS011;45916;52.734;6.544;2023-06-22T05:40:48;39.20;;;35.63;;
60038;SDS011;45916;52.734;6.544;2023-06-22T05:43:14;38.45;;;34.72;;
60038;SDS011;45916;52.734;6.544;2023-06-22T05:45:40;39.92;;;36.33;;
60038;SDS011;45916;52.734;6.544;2023-06-22T05:48:05;35.28;;;32.05;;
60038;SDS011;45916;52.734;6.544;2023-06-22T05:50:31;36.67;;;33.40;;
60038;SDS011;45916;52.734;6.544;2023-06-22T05:52:57;36.50;;;33.20;;
60038;SDS011;45916;52.734;6.544;2023-06-22T05:55:23;36.15;;;32.65;;
60038;SDS011;45916;52.734;6.544;2023-06-22T05:57:48;36.95;;;33.65;;
60038;SDS011;45916;52.734;6.544;2023-06-22T06:00:14;35.60;;;32.40;;
60038;SDS011;45916;52.734;6.544;2023-06-22T06:02:40;37.55;;;34.15;;
60038;SDS011;45916;52.734;6.544;2023-06-22T06:05:10;33.08;;;30.10;;
60038;SDS011;45916;52.734;6.544;2023-06-22T06:07:38;34.63;;;31.42;;
60038;SDS011;45916;52.734;6.544;2023-06-22T06:10:05;31.45;;;28.65;;
60038;SDS011;45916;52.734;6.544;2023-06-22T06:12:31;31.77;;;28.92;;
60038;SDS011;45916;52.734;6.544;2023-06-22T06:14:57;28.48;;;25.80;;
60038;SDS011;45916;52.734;6.544;2023-06-22T06:17:23;27.48;;;24.98;;
60038;SDS011;45916;52.734;6.544;2023-06-22T06:19:49;29.83;;;27.05;;
60038;SDS011;45916;52.734;6.544;2023-06-22T06:22:14;28.00;;;25.60;;
60038;SDS011;45916;52.734;6.544;2023-06-22T06:24:40;28.13;;;25.63;;
60038;SDS011;45916;52.734;6.544;2023-06-22T06:27:06;28.55;;;26.08;;
60038;SDS011;45916;52.734;6.544;2023-06-22T06:29:33;25.42;;;23.23;;
60038;SDS011;45916;52.734;6.544;2023-06-22T06:31:58;26.85;;;24.55;;
60038;SDS011;45916;52.734;6.544;2023-06-22T06:34:24;25.33;;;23.13;;
60038;SDS011;45916;52.734;6.544;2023-06-22T06:36:53;24.83;;;22.63;;
60038;SDS011;45916;52.734;6.544;2023-06-22T06:39:18;24.10;;;21.95;;
60038;SDS011;45916;52.734;6.544;2023-06-22T06:41:45;25.00;;;22.80;;
60038;SDS011;45916;52.734;6.544;2023-06-22T06:44:11;24.10;;;21.98;;
60038;SDS011;45916;52.734;6.544;2023-06-22T06:46:36;24.33;;;22.13;;
60038;SDS011;45916;52.734;6.544;2023-06-22T06:49:03;22.50;;;20.30;;
60038;SDS011;45916;52.734;6.544;2023-06-22T06:51:29;24.42;;;22.15;;
60038;SDS011;45916;52.734;6.544;2023-06-22T06:53:54;21.45;;;19.60;;
60038;SDS011;45916;52.734;6.544;2023-06-22T06:56:20;22.65;;;20.52;;
60038;SDS011;45916;52.734;6.544;2023-06-22T06:58:46;23.52;;;21.42;;
60038;SDS011;45916;52.734;6.544;2023-06-22T07:01:12;24.73;;;22.50;;
60038;SDS011;45916;52.734;6.544;2023-06-22T07:03:38;23.65;;;21.55;;
60038;SDS011;45916;52.734;6.544;2023-06-22T07:06:03;22.17;;;20.27;;
60038;SDS011;45916;52.734;6.544;2023-06-22T07:08:29;21.65;;;19.55;;
60038;SDS011;45916;52.734;6.544;2023-06-22T07:10:55;19.13;;;17.42;;
60038;SDS011;45916;52.734;6.544;2023-06-22T07:13:21;21.15;;;19.25;;
60038;SDS011;45916;52.734;6.544;2023-06-22T07:15:46;20.02;;;18.13;;
60038;SDS011;45916;52.734;6.544;2023-06-22T07:18:12;18.40;;;16.70;;
60038;SDS011;45916;52.734;6.544;2023-06-22T07:20:38;15.68;;;14.27;;
60038;SDS011;45916;52.734;6.544;2023-06-22T07:23:04;15.15;;;13.75;;
60038;SDS011;45916;52.734;6.544;2023-06-22T07:25:30;15.68;;;14.18;;
60038;SDS011;45916;52.734;6.544;2023-06-22T07:27:57;14.27;;;12.88;;
60038;SDS011;45916;52.734;6.544;2023-06-22T07:30:30;14.10;;;12.63;;
60038;SDS011;45916;52.734;6.544;2023-06-22T07:32:57;14.55;;;13.10;;
60038;SDS011;45916;52.734;6.544;2023-06-22T07:35:28;13.90;;;12.50;;
60038;SDS011;45916;52.734;6.544;2023-06-22T07:37:57;12.25;;;11.05;;
60038;SDS011;45916;52.734;6.544;2023-06-22T07:40:23;13.18;;;11.77;;
60038;SDS011;45916;52.734;6.544;2023-06-22T07:42:49;14.45;;;12.00;;
60038;SDS011;45916;52.734;6.544;2023-06-22T07:45:16;11.70;;;10.50;;
60038;SDS011;45916;52.734;6.544;2023-06-22T07:47:42;12.13;;;10.90;;
60038;SDS011;45916;52.734;6.544;2023-06-22T07:50:08;11.80;;;10.60;;
60038;SDS011;45916;52.734;6.544;2023-06-22T07:52:34;11.07;;;9.98;;
60038;SDS011;45916;52.734;6.544;2023-06-22T07:55:00;12.63;;;10.33;;
60038;SDS011;45916;52.734;6.544;2023-06-22T07:59:58;11.80;;;10.60;;
60038;SDS011;45916;52.734;6.544;2023-06-22T08:02:37;10.25;;;8.88;;
60038;SDS011;45916;52.734;6.544;2023-06-22T08:05:03;12.13;;;10.93;;
60038;SDS011;45916;52.734;6.544;2023-06-22T08:07:31;11.15;;;9.98;;
60038;SDS011;45916;52.734;6.544;2023-06-22T08:09:58;11.88;;;10.70;;
60038;SDS011;45916;52.734;6.544;2023-06-22T08:12:24;10.93;;;9.80;;
60038;SDS011;45916;52.734;6.544;2023-06-22T08:14:49;12.93;;;11.10;;
60038;SDS011;45916;52.734;6.544;2023-06-22T08:17:15;11.30;;;10.10;;
60038;SDS011;45916;52.734;6.544;2023-06-22T08:19:41;10.63;;;9.63;;
60038;SDS011;45916;52.734;6.544;2023-06-22T08:22:07;10.87;;;9.73;;
60038;SDS011;45916;52.734;6.544;2023-06-22T08:24:32;10.67;;;9.60;;
60038;SDS011;45916;52.734;6.544;2023-06-22T08:26:58;10.97;;;9.87;;
60038;SDS011;45916;52.734;6.544;2023-06-22T08:29:24;9.60;;;8.33;;
60038;SDS011;45916;52.734;6.544;2023-06-22T08:31:50;11.80;;;9.47;;
60038;SDS011;45916;52.734;6.544;2023-06-22T08:34:15;10.13;;;8.50;;
60038;SDS011;45916;52.734;6.544;2023-06-22T08:36:43;10.68;;;9.35;;
60038;SDS011;45916;52.734;6.544;2023-06-22T08:39:09;11.02;;;9.90;;
60038;SDS011;45916;52.734;6.544;2023-06-22T08:41:35;10.73;;;9.63;;
60038;SDS011;45916;52.734;6.544;2023-06-22T08:44:01;10.10;;;9.10;;
60038;SDS011;45916;52.734;6.544;2023-06-22T08:46:27;10.00;;;8.90;;
60038;SDS011;45916;52.734;6.544;2023-06-22T08:48:58;10.80;;;8.57;;
60038;SDS011;45916;52.734;6.544;2023-06-22T08:51:24;8.68;;;7.60;;
60038;SDS011;45916;52.734;6.544;2023-06-22T08:53:50;9.27;;;8.23;;
60038;SDS011;45916;52.734;6.544;2023-06-22T08:56:15;9.93;;;8.03;;
60038;SDS011;45916;52.734;6.544;2023-06-22T08:58:41;11.20;;;8.87;;
60038;SDS011;45916;52.734;6.544;2023-06-22T09:01:07;10.00;;;8.97;;
60038;SDS011;45916;52.734;6.544;2023-06-22T09:03:32;9.83;;;8.47;;
60038;SDS011;45916;52.734;6.544;2023-06-22T09:06:01;9.70;;;8.70;;
60038;SDS011;45916;52.734;6.544;2023-06-22T09:08:27;9.83;;;8.80;;
60038;SDS011;45916;52.734;6.544;2023-06-22T09:10:52;10.47;;;7.90;;
60038;SDS011;45916;52.734;6.544;2023-06-22T09:13:18;9.73;;;8.50;;
60038;SDS011;45916;52.734;6.544;2023-06-22T09:15:44;11.13;;;8.90;;
60038;SDS011;45916;52.734;6.544;2023-06-22T09:18:10;9.87;;;8.87;;
60038;SDS011;45916;52.734;6.544;2023-06-22T09:20:36;10.15;;;8.30;;
60038;SDS011;45916;52.734;6.544;2023-06-22T09:23:02;11.63;;;8.80;;
60038;SDS011;45916;52.734;6.544;2023-06-22T09:25:28;9.13;;;8.23;;
60038;SDS011;45916;52.734;6.544;2023-06-22T09:27:53;9.87;;;7.30;;
60038;SDS011;45916;52.734;6.544;2023-06-22T09:30:19;9.13;;;8.23;;
60038;SDS011;45916;52.734;6.544;2023-06-22T09:32:45;10.13;;;8.93;;
60038;SDS011;45916;52.734;6.544;2023-06-22T09:35:11;9.23;;;8.33;;
60038;SDS011;45916;52.734;6.544;2023-06-22T09:37:38;10.07;;;8.77;;
60038;SDS011;45916;52.734;6.544;2023-06-22T09:40:05;8.77;;;7.63;;
60038;SDS011;45916;52.734;6.544;2023-06-22T09:42:35;9.40;;;8.40;;
60038;SDS011;45916;52.734;6.544;2023-06-22T09:45:00;10.73;;;8.15;;
60038;SDS011;45916;52.734;6.544;2023-06-22T09:47:26;11.25;;;8.18;;
60038;SDS011;45916;52.734;6.544;2023-06-22T09:49:53;8.73;;;7.90;;
60038;SDS011;45916;52.734;6.544;2023-06-22T09:52:20;9.93;;;8.85;;
60038;SDS011;45916;52.734;6.544;2023-06-22T09:54:46;10.27;;;8.63;;
60038;SDS011;45916;52.734;6.544;2023-06-22T09:57:12;11.68;;;8.15;;
60038;SDS011;45916;52.734;6.544;2023-06-22T09:59:38;9.13;;;8.23;;
60038;SDS011;45916;52.734;6.544;2023-06-22T10:02:07;10.00;;;8.85;;
60038;SDS011;45916;52.734;6.544;2023-06-22T10:04:33;10.00;;;8.65;;
60038;SDS011;45916;52.734;6.544;2023-06-22T10:06:59;11.07;;;8.20;;
60038;SDS011;45916;52.734;6.544;2023-06-22T10:09:26;9.25;;;8.23;;
60038;SDS011;45916;52.734;6.544;2023-06-22T10:11:52;10.07;;;9.07;;
60038;SDS011;45916;52.734;6.544;2023-06-22T10:14:18;9.27;;;8.35;;
60038;SDS011;45916;52.734;6.544;2023-06-22T10:16:44;9.87;;;8.87;;
60038;SDS011;45916;52.734;6.544;2023-06-22T10:19:09;10.40;;;9.30;;
60038;SDS011;45916;52.734;6.544;2023-06-22T10:21:35;10.32;;;8.70;;
60038;SDS011;45916;52.734;6.544;2023-06-22T10:24:01;9.20;;;8.30;;
60038;SDS011;45916;52.734;6.544;2023-06-22T10:26:33;11.57;;;8.48;;
60038;SDS011;45916;52.734;6.544;2023-06-22T10:29:00;9.73;;;8.73;;
60038;SDS011;45916;52.734;6.544;2023-06-22T10:31:27;9.27;;;8.27;;
60038;SDS011;45916;52.734;6.544;2023-06-22T10:33:53;11.05;;;9.02;;
60038;SDS011;45916;52.734;6.544;2023-06-22T10:36:19;10.68;;;9.57;;
60038;SDS011;45916;52.734;6.544;2023-06-22T10:38:45;9.43;;;8.20;;
60038;SDS011;45916;52.734;6.544;2023-06-22T10:41:12;9.48;;;8.48;;
60038;SDS011;45916;52.734;6.544;2023-06-22T10:43:38;10.68;;;9.57;;
60038;SDS011;45916;52.734;6.544;2023-06-22T10:46:03;9.13;;;8.23;;
60038;SDS011;45916;52.734;6.544;2023-06-22T10:48:29;9.60;;;8.60;;
60038;SDS011;45916;52.734;6.544;2023-06-22T10:50:55;11.40;;;9.52;;
60038;SDS011;45916;52.734;6.544;2023-06-22T10:53:20;9.75;;;8.75;;
60038;SDS011;45916;52.734;6.544;2023-06-22T10:55:46;9.38;;;8.30;;
60038;SDS011;45916;52.734;6.544;2023-06-22T10:58:12;9.80;;;7.50;;
60038;SDS011;45916;52.734;6.544;2023-06-22T11:00:38;10.68;;;8.38;;
60038;SDS011;45916;52.734;6.544;2023-06-22T11:03:04;9.95;;;8.90;;
60038;SDS011;45916;52.734;6.544;2023-06-22T11:05:29;10.57;;;8.70;;
60038;SDS011;45916;52.734;6.544;2023-06-22T11:07:55;9.38;;;8.13;;
60038;SDS011;45916;52.734;6.544;2023-06-22T11:10:21;10.82;;;9.65;;
60038;SDS011;45916;52.734;6.544;2023-06-22T11:12:47;9.75;;;8.27;;
60038;SDS011;45916;52.734;6.544;2023-06-22T11:15:12;8.88;;;7.97;;
60038;SDS011;45916;52.734;6.544;2023-06-22T11:17:38;8.98;;;7.38;;
60038;SDS011;45916;52.734;6.544;2023-06-22T11:20:04;9.60;;;8.65;;
60038;SDS011;45916;52.734;6.544;2023-06-22T11:22:39;8.93;;;7.22;;
60038;SDS011;45916;52.734;6.544;2023-06-22T11:25:06;9.77;;;8.60;;
60038;SDS011;45916;52.734;6.544;2023-06-22T11:27:32;10.60;;;9.03;;
60038;SDS011;45916;52.734;6.544;2023-06-22T11:29:58;9.75;;;8.75;;
60038;SDS011;45916;52.734;6.544;2023-06-22T11:32:24;8.52;;;7.15;;
60038;SDS011;45916;52.734;6.544;2023-06-22T11:34:50;9.07;;;7.50;;
60038;SDS011;45916;52.734;6.544;2023-06-22T11:37:15;9.65;;;8.13;;
60038;SDS011;45916;52.734;6.544;2023-06-22T11:39:42;11.45;;;7.88;;
60038;SDS011;45916;52.734;6.544;2023-06-22T11:42:08;8.75;;;7.57;;
60038;SDS011;45916;52.734;6.544;2023-06-22T11:44:34;9.80;;;8.40;;
60038;SDS011;45916;52.734;6.544;2023-06-22T11:47:00;9.40;;;8.10;;
60038;SDS011;45916;52.734;6.544;2023-06-22T11:49:28;9.65;;;7.70;;
60038;SDS011;45916;52.734;6.544;2023-06-22T11:51:54;10.15;;;8.50;;
60038;SDS011;45916;52.734;6.544;2023-06-22T11:54:20;8.65;;;7.53;;
60038;SDS011;45916;52.734;6.544;2023-06-22T11:56:46;10.38;;;8.20;;
60038;SDS011;45916;52.734;6.544;2023-06-22T11:59:11;11.00;;;8.82;;
60038;SDS011;45916;52.734;6.544;2023-06-22T12:01:38;9.32;;;7.53;;
60038;SDS011;45916;52.734;6.544;2023-06-22T12:04:04;9.48;;;7.93;;
60038;SDS011;45916;52.734;6.544;2023-06-22T12:06:31;9.57;;;8.57;;
60038;SDS011;45916;52.734;6.544;2023-06-22T12:08:58;10.30;;;9.15;;
60038;SDS011;45916;52.734;6.544;2023-06-22T12:11:24;10.35;;;9.25;;
60038;SDS011;45916;52.734;6.544;2023-06-22T12:13:49;11.77;;;8.20;;
60038;SDS011;45916;52.734;6.544;2023-06-22T12:16:15;10.48;;;8.57;;
60038;SDS011;45916;52.734;6.544;2023-06-22T12:18:41;8.77;;;7.78;;
60038;SDS011;45916;52.734;6.544;2023-06-22T12:21:07;11.45;;;8.50;;
60038;SDS011;45916;52.734;6.544;2023-06-22T12:23:32;10.60;;;9.50;;
60038;SDS011;45916;52.734;6.544;2023-06-22T12:25:58;9.55;;;8.45;;
60038;SDS011;45916;52.734;6.544;2023-06-22T12:28:25;11.85;;;9.15;;
60038;SDS011;45916;52.734;6.544;2023-06-22T12:30:50;12.25;;;9.52;;
60038;SDS011;45916;52.734;6.544;2023-06-22T12:33:16;11.23;;;10.02;;
60038;SDS011;45916;52.734;6.544;2023-06-22T12:35:42;11.05;;;9.95;;
60038;SDS011;45916;52.734;6.544;2023-06-22T12:38:10;11.88;;;10.38;;
60038;SDS011;45916;52.734;6.544;2023-06-22T12:40:36;11.30;;;9.73;;
60038;SDS011;45916;52.734;6.544;2023-06-22T12:43:02;11.82;;;9.77;;
60038;SDS011;45916;52.734;6.544;2023-06-22T12:45:27;12.32;;;10.02;;
60038;SDS011;45916;52.734;6.544;2023-06-22T12:47:56;10.90;;;9.75;;
60038;SDS011;45916;52.734;6.544;2023-06-22T12:50:22;11.95;;;10.75;;
60038;SDS011;45916;52.734;6.544;2023-06-22T12:52:48;13.73;;;11.25;;
60038;SDS011;45916;52.734;6.544;2023-06-22T12:55:14;12.10;;;10.90;;
60038;SDS011;45916;52.734;6.544;2023-06-22T12:57:39;13.18;;;11.88;;
60038;SDS011;45916;52.734;6.544;2023-06-22T13:00:05;12.07;;;10.88;;
60038;SDS011;45916;52.734;6.544;2023-06-22T13:04:58;12.10;;;10.93;;
60038;SDS011;45916;52.734;6.544;2023-06-22T13:07:24;13.65;;;11.30;;
60038;SDS011;45916;52.734;6.544;2023-06-22T13:09:50;13.18;;;11.70;;
60038;SDS011;45916;52.734;6.544;2023-06-22T13:12:16;12.10;;;10.90;;
60038;SDS011;45916;52.734;6.544;2023-06-22T13:14:42;10.93;;;9.82;;
60038;SDS011;45916;52.734;6.544;2023-06-22T13:17:08;12.65;;;11.25;;
60038;SDS011;45916;52.734;6.544;2023-06-22T13:19:34;12.25;;;10.93;;
60038;SDS011;45916;52.734;6.544;2023-06-22T13:22:00;11.77;;;10.57;;
60038;SDS011;45916;52.734;6.544;2023-06-22T13:24:27;12.75;;;10.90;;
60038;SDS011;45916;52.734;6.544;2023-06-22T13:26:53;10.70;;;9.48;;
60038;SDS011;45916;52.734;6.544;2023-06-22T13:29:18;11.90;;;10.27;;
60038;SDS011;45916;52.734;6.544;2023-06-22T13:31:44;13.23;;;10.38;;
60038;SDS011;45916;52.734;6.544;2023-06-22T13:34:10;14.63;;;12.30;;
60038;SDS011;45916;52.734;6.544;2023-06-22T13:36:36;13.75;;;12.45;;
60038;SDS011;45916;52.734;6.544;2023-06-22T13:39:01;14.20;;;12.68;;
60038;SDS011;45916;52.734;6.544;2023-06-22T13:41:27;12.63;;;11.20;;
60038;SDS011;45916;52.734;6.544;2023-06-22T13:43:53;13.02;;;11.65;;
60038;SDS011;45916;52.734;6.544;2023-06-22T13:46:18;13.30;;;11.90;;
60038;SDS011;45916;52.734;6.544;2023-06-22T13:48:44;12.75;;;11.38;;
60038;SDS011;45916;52.734;6.544;2023-06-22T13:51:09;11.05;;;9.95;;
60038;SDS011;45916;52.734;6.544;2023-06-22T13:53:35;11.73;;;10.07;;
60038;SDS011;45916;52.734;6.544;2023-06-22T13:56:01;11.48;;;10.27;;
60038;SDS011;45916;52.734;6.544;2023-06-22T13:58:27;11.82;;;9.13;;
60038;SDS011;45916;52.734;6.544;2023-06-22T14:00:52;11.20;;;9.25;;
60038;SDS011;45916;52.734;6.544;2023-06-22T14:03:18;10.05;;;8.93;;
60038;SDS011;45916;52.734;6.544;2023-06-22T14:05:44;11.15;;;9.32;;
60038;SDS011;45916;52.734;6.544;2023-06-22T14:08:09;10.73;;;9.48;;
60038;SDS011;45916;52.734;6.544;2023-06-22T14:10:35;11.20;;;9.38;;
60038;SDS011;45916;52.734;6.544;2023-06-22T14:13:01;10.45;;;9.35;;
60038;SDS011;45916;52.734;6.544;2023-06-22T14:15:26;10.80;;;9.70;;
60038;SDS011;45916;52.734;6.544;2023-06-22T14:17:52;9.90;;;8.88;;
60038;SDS011;45916;52.734;6.544;2023-06-22T14:20:18;10.73;;;9.02;;
60038;SDS011;45916;52.734;6.544;2023-06-22T14:22:44;11.13;;;9.00;;
60038;SDS011;45916;52.734;6.544;2023-06-22T14:25:09;10.05;;;9.05;;
60038;SDS011;45916;52.734;6.544;2023-06-22T14:27:35;10.63;;;9.52;;
60038;SDS011;45916;52.734;6.544;2023-06-22T14:30:01;12.10;;;9.60;;
60038;SDS011;45916;52.734;6.544;2023-06-22T14:32:27;10.50;;;9.20;;
60038;SDS011;45916;52.734;6.544;2023-06-22T14:34:55;10.82;;;9.73;;
60038;SDS011;45916;52.734;6.544;2023-06-22T14:37:20;13.40;;;11.90;;
60038;SDS011;45916;52.734;6.544;2023-06-22T14:39:46;12.63;;;11.45;;